Time;durP1;ratioP1;P1;durP2;ratioP2;P2;SDS_P1;SDS_P2;PMS_P1;PMS_P2;Temp;Humidity;BMP_temperature;BMP_pressure;BME280_temperature;BME280_humidity;BME280_pressure;Samples;Min_cycle;Max_cycle;Signal;HPM_P1;HPM_P2
2021/06/10 00:01:41;;;;;;;1999.90;999.90;;;15.30;99.90;;;;;;5057251;28;20660;-81
2021/06/10 00:04:07;;;;;;;1999.90;999.90;;;15.30;99.90;;;;;;5059588;28;20229;-81
2021/06/10 00:06:32;;;;;;;1999.90;999.90;;;15.30;99.90;;;;;;5052514;28;20191;-81
2021/06/10 00:08:58;;;;;;;1999.90;999.90;;;15.30;99.90;;;;;;5056380;28;20174;-81
2021/06/10 00:11:24;;;;;;;1999.90;999.90;;;15.30;99.90;;;;;;5057827;28;20178;-81
2021/06/10 00:13:49;;;;;;;1999.90;999.90;;;15.30;99.90;;;;;;5058422;28;20289;-81
2021/06/10 00:16:16;;;;;;;1999.90;999.90;;;15.30;99.90;;;;;;5058314;28;20621;-81
2021/06/10 00:18:43;;;;;;;1999.90;999.90;;;15.20;99.90;;;;;;5059758;28;20186;-81
2021/06/10 00:21:09;;;;;;;1999.90;999.90;;;15.30;99.90;;;;;;5059992;28;20169;-81
2021/06/10 00:23:34;;;;;;;1999.90;999.90;;;15.20;99.90;;;;;;5061768;28;20179;-81
2021/06/10 00:26:00;;;;;;;1999.90;999.90;;;15.30;99.90;;;;;;5061832;28;20636;-81
2021/06/10 00:28:26;;;;;;;1999.90;999.90;;;15.20;99.90;;;;;;5063670;28;20626;-81
2021/06/10 00:30:52;;;;;;;1999.90;999.90;;;15.20;99.90;;;;;;5053521;28;20242;-81
2021/06/10 00:33:17;;;;;;;1999.90;999.90;;;15.20;99.90;;;;;;5061322;28;20561;-81
2021/06/10 00:35:43;;;;;;;1999.90;999.90;;;;;;;;;;5063271;28;20616;-81
2021/06/10 00:38:09;;;;;;;1999.90;999.90;;;15.10;99.90;;;;;;5063070;28;20628;-81
2021/06/10 00:40:35;;;;;;;1999.90;999.90;;;15.10;99.90;;;;;;5061680;28;20185;-80
2021/06/10 00:43:02;;;;;;;1999.90;999.90;;;15.10;99.90;;;;;;5061254;28;20563;-81
2021/06/10 00:45:28;;;;;;;1999.90;999.90;;;15.10;99.90;;;;;;5062071;28;20209;-81
2021/06/10 00:47:54;;;;;;;1999.90;999.90;;;15.10;99.90;;;;;;5061448;28;20245;-81
2021/06/10 00:50:34;;;;;;;1999.90;999.90;;;15.00;99.90;;;;;;5062312;28;20181;-81
2021/06/10 00:53:00;;;;;;;1999.90;999.90;;;14.70;99.90;;;;;;5062602;28;20216;-81
2021/06/10 00:55:26;;;;;;;1999.90;999.90;;;14.60;99.90;;;;;;5061275;28;20197;-81
2021/06/10 00:57:51;;;;;;;1999.90;999.90;;;14.60;99.90;;;;;;5063323;28;20717;-81
2021/06/10 01:00:18;;;;;;;1999.90;999.90;;;14.70;99.90;;;;;;5062017;28;20269;-81
2021/06/10 01:02:44;;;;;;;1999.90;999.90;;;14.70;99.90;;;;;;5060437;28;20185;-81
2021/06/10 01:05:11;;;;;;;1999.90;999.90;;;14.80;99.90;;;;;;5061421;28;20210;-81
2021/06/10 01:08:02;;;;;;;1999.90;999.90;;;14.80;99.90;;;;;;5062627;28;20250;-81
2021/06/10 01:10:39;;;;;;;1999.90;999.90;;;14.80;99.90;;;;;;5061905;28;20183;-81
2021/06/10 01:13:58;;;;;;;1999.90;999.90;;;14.90;99.90;;;;;;5063004;28;20576;-81
2021/06/10 01:16:27;;;;;;;1999.90;999.90;;;14.80;99.90;;;;;;5020585;28;20242;-81
2021/06/10 01:18:55;;;;;;;1999.90;999.90;;;14.80;99.90;;;;;;5020262;28;20250;-81
2021/06/10 01:21:21;;;;;;;1999.90;999.90;;;14.90;99.90;;;;;;5041618;28;20550;-81
2021/06/10 01:24:00;;;;;;;1999.90;999.90;;;14.80;99.90;;;;;;5061357;28;20210;-80
2021/06/10 01:26:39;;;;;;;1999.90;999.90;;;14.80;99.90;;;;;;5062721;28;20170;-81
2021/06/10 01:29:09;;;;;;;1999.90;999.90;;;14.80;99.90;;;;;;5060907;28;20185;-81
2021/06/10 01:31:35;;;;;;;1999.90;999.90;;;14.80;99.90;;;;;;5060683;28;20227;-81
2021/06/10 01:34:05;;;;;;;1999.90;999.90;;;14.80;99.90;;;;;;5062810;28;20197;-80
2021/06/10 01:36:36;;;;;;;1999.90;999.90;;;14.80;99.90;;;;;;5062300;28;20265;-81
2021/06/10 01:39:11;;;;;;;1999.90;999.90;;;14.60;99.90;;;;;;5060330;28;20177;-81
2021/06/10 01:41:40;;;;;;;1999.90;999.90;;;14.40;99.90;;;;;;5059092;28;20596;-81
2021/06/10 01:44:07;;;;;;;1999.90;999.90;;;14.30;99.90;;;;;;5061394;28;20198;-80
2021/06/10 01:46:35;;;;;;;1999.90;999.90;;;14.30;99.90;;;;;;5059505;28;20278;-80
2021/06/10 01:49:03;;;;;;;1999.90;999.90;;;14.40;99.90;;;;;;5060121;28;20268;-80
2021/06/10 01:51:30;;;;;;;1999.90;999.90;;;14.40;99.90;;;;;;5061476;28;20185;-81
2021/06/10 01:53:58;;;;;;;1999.90;999.90;;;14.50;99.90;;;;;;5062158;28;20212;-81
2021/06/10 01:56:25;;;;;;;1999.90;999.90;;;14.60;99.90;;;;;;5059707;28;20202;-81
2021/06/10 01:58:52;;;;;;;1999.90;999.90;;;14.60;99.90;;;;;;5061174;28;20201;-81
2021/06/10 02:01:20;;;;;;;1999.90;999.90;;;14.60;99.90;;;;;;5060747;28;20182;-80
2021/06/10 02:03:47;;;;;;;1999.90;999.90;;;14.70;99.90;;;;;;5058636;28;20217;-80
2021/06/10 02:06:15;;;;;;;1999.90;999.90;;;14.70;99.90;;;;;;5048642;28;20605;-81
2021/06/10 02:08:44;;;;;;;1999.90;999.90;;;14.60;99.90;;;;;;5055347;28;20193;-80
2021/06/10 02:11:11;;;;;;;1999.90;999.90;;;14.60;99.90;;;;;;5056309;28;20186;-80
2021/06/10 02:13:37;;;;;;;1999.90;999.90;;;14.60;99.90;;;;;;5059359;28;20182;-80
2021/06/10 02:16:07;;;;;;;1999.90;999.90;;;14.60;99.90;;;;;;5059228;28;20260;-81
2021/06/10 02:18:34;;;;;;;1999.90;999.90;;;14.70;99.90;;;;;;5060581;28;20177;-80
2021/06/10 02:21:01;;;;;;;1999.90;999.90;;;14.80;99.90;;;;;;5059201;28;20232;-81
2021/06/10 02:23:27;;;;;;;1999.90;999.90;;;14.80;99.90;;;;;;5060655;28;20185;-81
2021/06/10 02:25:53;;;;;;;1999.90;999.90;;;14.80;99.90;;;;;;5099348;22;20650;-78
2021/06/10 02:28:18;;;;;;;1999.90;999.90;;;14.80;99.90;;;;;;5080247;28;20302;-78
2021/06/10 02:30:44;;;;;;;1999.90;999.90;;;14.80;99.90;;;;;;5079714;28;20197;-78
2021/06/10 02:33:10;;;;;;;1999.90;999.90;;;14.80;99.90;;;;;;5080589;28;20177;-78
2021/06/10 02:35:35;;;;;;;1999.90;999.90;;;14.80;99.90;;;;;;5077043;28;20226;-79
2021/06/10 02:38:03;;;;;;;1999.90;999.90;;;14.80;99.90;;;;;;5079863;28;20594;-79
2021/06/10 02:40:35;;;;;;;1999.90;999.90;;;14.80;99.90;;;;;;5080597;28;20199;-78
2021/06/10 02:43:03;;;;;;;1999.90;999.90;;;14.80;99.90;;;;;;5061525;28;20177;-78
2021/06/10 02:45:29;;;;;;;1999.90;999.90;;;14.70;99.90;;;;;;5062118;28;20284;-78
2021/06/10 02:47:57;;;;;;;1999.90;999.90;;;14.70;99.90;;;;;;5080001;28;20260;-78
2021/06/10 02:50:25;;;;;;;1999.90;999.90;;;14.80;99.90;;;;;;5080370;28;20177;-79
2021/06/10 02:52:51;;;;;;;1999.90;999.90;;;14.70;99.90;;;;;;5079925;28;20180;-78
2021/06/10 02:55:19;;;;;;;1999.90;999.90;;;14.70;99.90;;;;;;5061761;28;20614;-78
2021/06/10 02:57:50;;;;;;;1999.90;999.90;;;14.80;99.90;;;;;;5061788;28;20180;-78
2021/06/10 03:00:18;;;;;;;1999.90;999.90;;;14.80;99.90;;;;;;5080628;28;20177;-78
2021/06/10 03:02:44;;;;;;;1999.90;999.90;;;14.60;99.90;;;;;;5062010;28;20606;-78
2021/06/10 03:05:12;;;;;;;1999.90;999.90;;;14.60;99.90;;;;;;5079459;28;20201;-79
2021/06/10 03:07:38;;;;;;;1999.90;999.90;;;14.60;99.90;;;;;;5079932;28;20177;-78
2021/06/10 03:10:09;;;;;;;1999.90;999.90;;;14.60;99.90;;;;;;5079813;28;20185;-78
2021/06/10 03:12:38;;;;;;;1999.90;999.90;;;14.70;99.90;;;;;;5060948;28;20677;-78
2021/06/10 03:15:06;;;;;;;1999.90;999.90;;;14.70;99.90;;;;;;5061231;28;20239;-78
2021/06/10 03:17:32;;;;;;;1999.90;999.90;;;14.60;99.90;;;;;;5079602;28;20252;-79
2021/06/10 03:19:58;;;;;;;1999.90;999.90;;;14.50;99.90;;;;;;5060837;28;20173;-78
2021/06/10 03:22:24;;;;;;;1999.90;999.90;;;14.50;99.90;;;;;;5079189;28;20231;-78
2021/06/10 03:24:52;;;;;;;1999.90;999.90;;;14.50;99.90;;;;;;5079597;28;20725;-78
2021/06/10 03:27:19;;;;;;;1999.90;999.90;;;14.50;99.90;;;;;;5079284;28;20227;-78
2021/06/10 03:29:45;;;;;;;1999.90;999.90;;;14.40;99.90;;;;;;5079695;28;20186;-78
2021/06/10 03:32:11;;;;;;;1999.90;999.90;;;14.50;99.90;;;;;;5061207;28;20173;-78
2021/06/10 03:34:37;;;;;;;1999.90;999.90;;;14.50;99.90;;;;;;5079211;28;20292;-78
2021/06/10 03:37:04;;;;;;;1999.90;999.90;;;14.50;99.90;;;;;;5061551;28;20228;-78
2021/06/10 03:39:31;;;;;;;1999.90;999.90;;;14.50;99.90;;;;;;5079603;28;20174;-78
2021/06/10 03:41:58;;;;;;;1999.90;999.90;;;14.50;99.90;;;;;;5079010;28;20255;-78
2021/06/10 03:44:27;;;;;;;1999.90;999.90;;;14.60;99.90;;;;;;5079244;28;20217;-78
2021/06/10 03:46:54;;;;;;;1999.90;999.90;;;14.60;99.90;;;;;;5078444;28;20719;-79
2021/06/10 03:49:20;;;;;;;1999.90;999.90;;;14.60;99.90;;;;;;5078915;28;20535;-78
2021/06/10 03:51:53;;;;;;;1999.90;999.90;;;14.60;99.90;;;;;;5062197;28;20176;-78
2021/06/10 03:54:19;;;;;;;1999.90;999.90;;;14.60;99.90;;;;;;5060256;28;20213;-78
2021/06/10 03:56:46;;;;;;;1999.90;999.90;;;14.60;99.90;;;;;;5077643;28;20674;-79
2021/06/10 03:59:12;;;;;;;1999.90;999.90;;;14.50;99.90;;;;;;5078900;28;20176;-78
2021/06/10 04:01:37;;;;;;;1999.90;999.90;;;14.50;99.90;;;;;;5053335;28;20766;-78
2021/06/10 04:04:04;;;;;;;1999.90;999.90;;;14.50;99.90;;;;;;5067731;28;20197;-79
2021/06/10 04:06:34;;;;;;;1999.90;999.90;;;14.60;99.90;;;;;;5075927;28;20192;-79
2021/06/10 04:09:04;;;;;;;1999.90;999.90;;;14.50;99.90;;;;;;5077703;28;20179;-78
2021/06/10 04:11:30;;;;;;;1999.90;999.90;;;14.50;99.90;;;;;;5048977;28;20704;-78
2021/06/10 04:13:56;;;;;;;1999.90;999.90;;;14.60;99.90;;;;;;5061078;28;20177;-78
2021/06/10 04:16:22;;;;;;;1999.90;999.90;;;14.50;99.90;;;;;;5057968;28;20209;-78
2021/06/10 04:18:49;;;;;;;1999.90;999.90;;;14.50;99.90;;;;;;5060246;28;20260;-78
2021/06/10 04:21:14;;;;;;;1999.90;999.90;;;14.50;99.90;;;;;;5077367;28;20584;-78
2021/06/10 04:23:40;;;;;;;1999.90;999.90;;;14.60;99.90;;;;;;5058214;28;20245;-79
2021/06/10 04:26:06;;;;;;;1999.90;999.90;;;14.60;99.90;;;;;;5052200;28;20203;-79
2021/06/10 04:28:32;;;;;;;1999.90;999.90;;;14.60;99.90;;;;;;5063746;28;20552;-78
2021/06/10 04:30:59;;;;;;;1999.90;999.90;;;14.60;99.90;;;;;;5061004;28;20180;-78
2021/06/10 04:33:25;;;;;;;1999.90;999.90;;;14.60;99.90;;;;;;5078223;28;20179;-78
2021/06/10 04:35:50;;;;;;;1999.90;999.90;;;14.60;99.90;;;;;;5078061;28;20280;-78
2021/06/10 04:38:17;;;;;;;1999.90;999.90;;;14.60;99.90;;;;;;5059890;28;20176;-78
2021/06/10 04:40:43;;;;;;;1999.90;999.90;;;14.60;99.90;;;;;;5076253;28;20660;-79
2021/06/10 04:43:08;;;;;;;1999.90;999.90;;;14.60;99.90;;;;;;5077548;28;20170;-79
2021/06/10 04:45:34;;;;;;;1999.90;999.90;;;14.70;99.90;;;;;;5076977;28;20225;-78
2021/06/10 04:48:00;;;;;;;1999.90;999.90;;;14.70;99.90;;;;;;5077278;28;20655;-78
2021/06/10 04:50:28;;;;;;;1999.90;999.90;;;14.60;99.90;;;;;;5076741;28;20660;-78
2021/06/10 04:52:55;;;;;;;1999.90;999.90;;;14.60;99.90;;;;;;5073669;28;20602;-78
2021/06/10 04:55:21;;;;;;;1999.90;999.90;;;14.60;99.90;;;;;;5058232;28;20208;-78
2021/06/10 04:57:47;;;;;;;1999.90;999.90;;;14.70;99.90;;;;;;5073604;28;20591;-83
2021/06/10 05:00:13;;;;;;;1999.90;999.90;;;14.60;99.90;;;;;;5076374;28;20173;-83
2021/06/10 05:02:39;;;;;;;1999.90;999.90;;;14.60;99.90;;;;;;5060246;28;20256;-83
2021/06/10 05:05:06;;;;;;;1999.90;999.90;;;14.60;99.90;;;;;;5060519;28;20228;-83
2021/06/10 05:07:32;;;;;;;1999.90;999.90;;;14.50;99.90;;;;;;5080957;28;20290;-83
2021/06/10 05:09:58;;;;;;;1999.90;999.90;;;14.60;99.90;;;;;;5080805;28;20184;-83
2021/06/10 05:12:24;;;;;;;1999.90;999.90;;;14.60;99.90;;;;;;5063432;28;20185;-83
2021/06/10 05:14:50;;;;;;;1999.90;999.90;;;14.60;99.90;;;;;;5080921;28;20679;-83
2021/06/10 05:17:16;;;;;;;1999.90;999.90;;;14.60;99.90;;;;;;5082071;28;20173;-83
2021/06/10 05:19:42;;;;;;;1999.90;999.90;;;14.60;99.90;;;;;;5081142;28;20171;-83
2021/06/10 05:22:08;;;;;;;1999.90;999.90;;;14.60;99.90;;;;;;5049058;28;20210;-83
2021/06/10 05:24:34;;;;;;;1999.90;999.90;;;14.70;99.90;;;;;;5062629;28;20213;-83
2021/06/10 05:26:59;;;;;;;1999.90;999.90;;;14.80;99.90;;;;;;5079225;28;20234;-84
2021/06/10 05:29:25;;;;;;;1999.90;999.90;;;14.80;99.90;;;;;;5079654;28;20173;-84
2021/06/10 05:31:51;;;;;;;1999.90;999.90;;;14.90;99.90;;;;;;5081434;28;20177;-83
2021/06/10 05:34:17;;;;;;;1999.90;999.90;;;14.80;99.90;;;;;;5081762;28;20188;-83
2021/06/10 05:36:42;;;;;;;1999.90;999.90;;;14.80;99.90;;;;;;5081483;28;20188;-83
2021/06/10 05:39:08;;;;;;;1999.90;999.90;;;14.80;99.90;;;;;;5063841;28;20169;-83
2021/06/10 05:41:34;;;;;;;1999.90;999.90;;;14.80;99.90;;;;;;5081188;28;20231;-83
2021/06/10 05:44:00;;;;;;;1999.90;999.90;;;14.90;99.90;;;;;;5082101;28;20173;-83
2021/06/10 05:46:25;;;;;;;1999.90;999.90;;;14.80;99.90;;;;;;5081645;28;20203;-83
2021/06/10 05:48:51;;;;;;;1999.90;999.90;;;14.80;99.90;;;;;;5063903;28;20240;-83
2021/06/10 05:51:17;;;;;;;1999.90;999.90;;;14.80;99.90;;;;;;5083003;28;20202;-83
2021/06/10 05:53:43;;;;;;;1999.90;999.90;;;14.80;99.90;;;;;;5063925;28;20562;-83
2021/06/10 05:56:08;;;;;;;1999.90;999.90;;;14.80;99.90;;;;;;5071367;28;20216;-83
2021/06/10 05:58:34;;;;;;;1999.90;999.90;;;14.80;99.90;;;;;;5068382;28;20178;-83
2021/06/10 06:01:00;;;;;;;1999.90;999.90;;;14.90;99.90;;;;;;5056740;28;20633;-83
2021/06/10 06:03:30;;;;;;;1999.90;999.90;;;15.00;99.90;;;;;;5053239;28;20173;-84
2021/06/10 06:05:56;;;;;;;1999.90;999.90;;;15.00;99.90;;;;;;5061692;28;20216;-83
2021/06/10 06:08:22;;;;;;;1999.90;999.90;;;15.10;99.90;;;;;;5067331;28;20178;-81
2021/06/10 06:10:51;;;;;;;1999.90;999.90;;;15.10;99.90;;;;;;5072305;28;20252;-83
2021/06/10 06:13:20;;;;;;;1999.90;999.90;;;15.10;99.90;;;;;;5068994;28;20181;-83
2021/06/10 06:15:47;;;;;;;1999.90;999.90;;;15.10;99.90;;;;;;5066812;28;20554;-83
2021/06/10 06:18:12;;;;;;;1999.90;999.90;;;15.10;99.90;;;;;;5072315;28;20310;-83
2021/06/10 06:20:38;;;;;;;1999.90;999.90;;;15.20;99.90;;;;;;5075218;28;20205;-83
2021/06/10 06:23:04;;;;;;;1999.90;999.90;;;15.20;99.90;;;;;;5069180;28;20186;-83
2021/06/10 06:25:29;;;;;;;1999.90;999.90;;;15.10;99.90;;;;;;5062766;28;20223;-83
2021/06/10 06:27:55;;;;;;;1999.90;999.90;;;15.10;99.90;;;;;;5056101;28;20208;-83
2021/06/10 06:30:21;;;;;;;1999.90;999.90;;;15.20;99.90;;;;;;5059172;28;20188;-83
2021/06/10 06:32:47;;;;;;;1999.90;999.90;;;15.30;99.90;;;;;;5070297;28;20182;-83
2021/06/10 06:35:13;;;;;;;1999.90;999.90;;;15.30;99.90;;;;;;5074229;28;20208;-83
2021/06/10 06:37:38;;;;;;;1999.90;999.90;;;15.30;99.90;;;;;;5052992;28;20227;-83
2021/06/10 06:40:05;;;;;;;1999.90;999.90;;;15.30;99.90;;;;;;5058608;28;20910;-83
2021/06/10 06:42:32;;;;;;;1999.90;999.90;;;15.40;99.90;;;;;;5056704;28;20181;-83
2021/06/10 06:44:58;;;;;;;1999.90;999.90;;;15.40;99.90;;;;;;5073164;28;20221;-83
2021/06/10 06:47:23;;;;;;;1999.90;999.90;;;15.40;99.90;;;;;;5072644;28;20195;-83
2021/06/10 06:49:49;;;;;;;1999.90;999.90;;;15.40;99.90;;;;;;5075195;28;20181;-83
2021/06/10 06:52:15;;;;;;;1999.90;999.90;;;15.40;99.90;;;;;;5077782;28;20196;-83
2021/06/10 06:54:40;;;;;;;1999.90;999.90;;;15.30;99.90;;;;;;5060230;28;20287;-83
2021/06/10 06:57:06;;;;;;;1999.90;999.90;;;15.30;99.90;;;;;;5069843;28;20173;-83
2021/06/10 06:59:32;;;;;;;1999.90;999.90;;;15.40;99.90;;;;;;5058381;28;20170;-83
2021/06/10 07:01:58;;;;;;;1999.90;999.90;;;15.40;99.90;;;;;;5078805;28;20169;-83
2021/06/10 07:04:27;;;;;;;1999.90;999.90;;;15.40;99.90;;;;;;5065333;28;20684;-83
2021/06/10 07:06:53;;;;;;;1999.90;999.90;;;15.50;99.90;;;;;;5076351;28;20185;-83
2021/06/10 07:09:19;;;;;;;1999.90;999.90;;;15.60;99.90;;;;;;5077463;28;20199;-83
2021/06/10 07:11:45;;;;;;;1999.90;999.90;;;15.60;99.90;;;;;;5079422;28;20189;-83
2021/06/10 07:14:10;;;;;;;1999.90;999.90;;;15.60;99.90;;;;;;5078052;28;20238;-83
2021/06/10 07:16:36;;;;;;;1999.90;999.90;;;15.60;99.90;;;;;;5076673;28;20236;-83
2021/06/10 07:19:02;;;;;;;1999.90;999.90;;;15.70;99.90;;;;;;5076004;28;20170;-84
2021/06/10 07:21:44;;;;;;;1999.90;999.90;;;15.70;99.90;;;;;;5054694;28;20192;-83
2021/06/10 07:24:10;;;;;;;1999.90;999.90;;;15.80;99.90;;;;;;5049213;28;20185;-83
2021/06/10 07:26:36;;;;;;;1999.90;999.90;;;15.80;99.90;;;;;;5072723;28;20177;-83
2021/06/10 07:29:02;;;;;;;1999.90;999.90;;;15.80;99.90;;;;;;5051204;28;20227;-83
2021/06/10 07:31:27;;;;;;;1999.90;999.90;;;15.90;99.90;;;;;;5077132;28;20200;-83
2021/06/10 07:33:53;;;;;;;1999.90;999.90;;;16.00;99.90;;;;;;5067699;28;20268;-84
2021/06/10 07:36:19;;;;;;;1999.90;999.90;;;16.00;99.90;;;;;;5055916;28;20209;-84
2021/06/10 07:38:44;;;;;;;1999.90;999.90;;;16.10;99.90;;;;;;5077105;28;20256;-84
2021/06/10 07:41:10;;;;;;;1999.90;999.90;;;16.10;99.90;;;;;;5061335;28;20178;-84
2021/06/10 07:43:36;;;;;;;1999.90;999.90;;;16.20;99.90;;;;;;5053547;28;20182;-83
2021/06/10 07:46:02;;;;;;;1999.90;999.90;;;16.20;99.90;;;;;;5073416;28;20205;-83
2021/06/10 07:48:29;;;;;;;1999.90;999.90;;;16.10;99.90;;;;;;5076503;28;20183;-83
2021/06/10 07:50:56;;;;;;;1999.90;999.90;;;16.10;99.90;;;;;;5072240;28;20664;-83
2021/06/10 07:53:21;;;;;;;1999.90;999.90;;;16.20;99.90;;;;;;5059686;28;20178;-83
2021/06/10 07:55:54;;;;;;;1999.90;999.90;;;16.20;99.90;;;;;;5077012;28;20678;-83
2021/06/10 07:58:19;;;;;;;1999.90;999.90;;;16.30;99.90;;;;;;5075581;28;20197;-83
2021/06/10 08:00:45;;;;;;;1999.90;999.90;;;16.30;99.90;;;;;;5062205;28;20200;-84
2021/06/10 08:03:11;;;;;;;1999.90;999.90;;;16.40;99.90;;;;;;5053086;28;20649;-84
2021/06/10 08:05:36;;;;;;;1999.90;999.90;;;16.40;99.90;;;;;;5050977;28;20198;-83
2021/06/10 08:08:02;;;;;;;1999.90;999.90;;;16.50;99.90;;;;;;5055423;28;20188;-84
2021/06/10 08:10:28;;;;;;;1999.90;999.90;;;16.60;99.90;;;;;;5079674;28;20180;-85
2021/06/10 08:12:54;;;;;;;1999.90;999.90;;;16.70;99.90;;;;;;5060214;28;20178;-84
2021/06/10 08:15:20;;;;;;;1999.90;999.90;;;16.80;99.90;;;;;;5074929;28;20624;-84
2021/06/10 08:17:46;;;;;;;1999.90;999.90;;;17.00;99.90;;;;;;5057797;28;20238;-85
2021/06/10 08:20:12;;;;;;;1999.90;999.90;;;17.10;99.90;;;;;;5067417;28;20182;-84
2021/06/10 08:22:38;;;;;;;1999.90;999.90;;;17.20;99.90;;;;;;5060370;28;20182;-85
2021/06/10 08:25:06;;;;;;;1999.90;999.90;;;17.30;99.90;;;;;;5117786;22;20308;-80
2021/06/10 08:27:31;;;;;;;1999.90;999.90;;;17.50;99.90;;;;;;5120874;28;20185;-80
2021/06/10 08:29:57;;;;;;;1999.90;999.90;;;17.60;99.90;;;;;;5096577;28;20253;-80
2021/06/10 08:32:23;;;;;;;1999.90;999.90;;;17.60;99.90;;;;;;5119819;28;20258;-81
2021/06/10 08:34:48;;;;;;;1999.90;999.90;;;17.70;99.90;;;;;;5119599;28;20199;-81
2021/06/10 08:37:14;;;;;;;1999.90;999.90;;;17.80;99.90;;;;;;5101154;28;20182;-80
2021/06/10 08:39:40;;;;;;;1999.90;999.90;;;17.80;99.90;;;;;;5118420;28;20163;-81
2021/06/10 08:42:06;;;;;;;1999.90;999.90;;;18.00;99.90;;;;;;5098239;28;20558;-80
2021/06/10 08:44:34;;;;;;;1999.90;999.90;;;18.10;99.90;;;;;;5120445;28;20170;-81
2021/06/10 08:47:02;;;;;;;1999.90;999.90;;;18.30;99.90;;;;;;5123921;28;20186;-81
2021/06/10 08:49:29;;;;;;;1999.90;999.90;;;18.40;99.90;;;;;;5124628;28;20181;-81
2021/06/10 08:51:56;;;;;;;1999.90;999.90;;;18.50;99.90;;;;;;5126120;27;20178;-81
2021/06/10 08:54:21;;;;;;;1999.90;999.90;;;18.60;99.90;;;;;;5127735;27;20200;-81
2021/06/10 08:56:47;;;;;;;1999.90;999.90;;;18.60;99.90;;;;;;5125772;27;20190;-81
2021/06/10 08:59:13;;;;;;;1999.90;999.90;;;18.80;99.90;;;;;;5112487;28;20170;-81
2021/06/10 09:01:42;;;;;;;1999.90;999.90;;;19.00;99.90;;;;;;5138037;27;20190;-81
2021/06/10 09:04:09;;;;;;;1999.90;999.90;;;19.30;99.90;;;;;;5124461;28;20543;-81
2021/06/10 09:06:52;;;;;;;1999.90;999.90;;;19.40;99.90;;;;;;5125370;28;20195;-81
2021/06/10 09:09:36;;;;;;;1999.90;999.90;;;19.50;99.90;;;;;;5125843;28;20206;-81
2021/06/10 09:12:05;;;;;;;1999.90;999.90;;;19.60;99.90;;;;;;5128445;27;20179;-81
2021/06/10 09:14:31;;;;;;;1999.90;999.90;;;19.60;99.90;;;;;;5107105;28;20546;-81
2021/06/10 09:16:57;;;;;;;1999.90;999.90;;;19.70;99.90;;;;;;5124456;28;20202;-81
2021/06/10 09:19:30;;;;;;;1999.90;999.90;;;19.80;99.90;;;;;;5123654;28;20187;-81
2021/06/10 09:21:57;;;;;;;1999.90;999.90;;;20.00;99.90;;;;;;5105717;28;20183;-80
2021/06/10 09:24:25;;;;;;;1999.90;999.90;;;20.10;99.90;;;;;;5104849;28;20709;-81
2021/06/10 09:26:59;;;;;;;1999.90;999.90;;;20.10;99.90;;;;;;5123762;28;20211;-81
2021/06/10 09:29:48;;;;;;;1999.90;999.90;;;20.20;99.90;;;;;;5105981;28;20186;-81
2021/06/10 09:32:23;;;;;;;1999.90;999.90;;;20.50;99.90;;;;;;5122517;28;20206;-78
2021/06/10 09:34:51;;;;;;;1999.90;999.90;;;20.60;99.90;;;;;;5123127;28;20206;-81
2021/06/10 09:37:33;;;;;;;1999.90;999.90;;;20.60;99.90;;;;;;5122784;28;20634;-81
2021/06/10 09:40:10;;;;;;;1999.90;999.90;;;20.80;99.90;;;;;;5122629;28;20175;-81
2021/06/10 09:42:38;;;;;;;1999.90;999.90;;;21.00;99.90;;;;;;5123086;28;20215;-81
2021/06/10 09:45:15;;;;;;;1999.90;999.90;;;21.20;99.90;;;;;;5103262;28;20196;-81
2021/06/10 09:47:50;;;;;;;1999.90;999.90;;;21.40;99.90;;;;;;5106482;28;20175;-81
2021/06/10 09:50:23;;;;;;;1999.90;999.90;;;21.40;99.90;;;;;;5122095;28;20646;-82
2021/06/10 09:52:51;;;;;;;1999.90;999.90;;;21.40;99.90;;;;;;5122641;28;20186;-82
2021/06/10 09:55:43;;;;;;;1999.90;999.90;;;21.60;99.90;;;;;;5121989;28;20206;-79
2021/06/10 09:58:12;;;;;;;1999.90;999.90;;;21.70;99.90;;;;;;5117587;28;20653;-81
2021/06/10 10:00:59;;;;;;;1999.90;999.90;;;21.80;99.90;;;;;;5123424;28;20206;-81
2021/06/10 10:03:24;;;;;;;1999.90;999.90;;;21.80;99.90;;;;;;5102811;28;20203;-81
2021/06/10 10:05:56;;;;;;;1999.90;999.90;;;21.90;99.90;;;;;;5122754;28;20191;-81
2021/06/10 10:08:21;;;;;;;1999.90;999.90;;;22.10;99.90;;;;;;5102729;28;20179;-82
2021/06/10 10:10:47;;;;;;;1999.90;999.90;;;22.10;99.90;;;;;;5121591;28;20175;-81
2021/06/10 10:13:17;;;;;;;1999.90;999.90;;;22.40;99.90;;;;;;5103580;28;20184;-78
2021/06/10 10:15:44;;;;;;;1999.90;999.90;;;22.50;99.90;;;;;;5102345;28;20206;-81
2021/06/10 10:18:13;;;;;;;1999.90;999.90;;;22.60;99.90;;;;;;5100841;28;20538;-81
2021/06/10 10:20:40;;;;;;;1999.90;999.90;;;22.70;99.90;;;;;;5098523;28;20656;-81
2021/06/10 10:23:07;;;;;;;1999.90;999.90;;;22.80;99.90;;;;;;5109367;28;20172;-81
2021/06/10 10:25:32;;;;;;;1999.90;999.90;;;22.80;99.90;;;;;;5120305;28;20208;-81
2021/06/10 10:28:07;;;;;;;1999.90;999.90;;;22.80;99.90;;;;;;5116227;28;20260;-81
2021/06/10 10:30:33;;;;;;;1999.90;999.90;;;22.70;99.90;;;;;;5100828;28;20650;-81
2021/06/10 10:33:13;;;;;;;1999.90;999.90;;;22.60;99.90;;;;;;5117757;28;20545;-81
2021/06/10 10:36:04;;;;;;;1999.90;999.90;;;22.60;99.90;;;;;;5117557;28;20192;-79
2021/06/10 10:38:35;;;;;;;1999.90;999.90;;;22.70;99.90;;;;;;5097401;28;20168;-81
2021/06/10 10:41:04;;;;;;;1999.90;999.90;;;22.70;99.90;;;;;;5115881;28;20191;-79
2021/06/10 10:43:30;;;;;;;1999.90;999.90;;;22.70;99.90;;;;;;5119320;28;20235;-78
2021/06/10 10:46:18;;;;;;;1999.90;999.90;;;22.60;99.90;;;;;;5097934;28;20214;-78
2021/06/10 10:48:49;;;;;;;1999.90;999.90;;;22.50;99.90;;;;;;5115438;28;20225;-80
2021/06/10 10:51:41;;;;;;;1999.90;999.90;;;22.80;99.90;;;;;;5116904;28;20256;-81
2021/06/10 10:54:33;;;;;;;1999.90;999.90;;;23.10;99.90;;;;;;5096270;28;20184;-81
2021/06/10 10:56:59;;;;;;;1999.90;999.90;;;23.40;99.90;;;;;;5098694;28;20260;-82
2021/06/10 10:59:25;;;;;;;1999.90;999.90;;;23.30;99.90;;;;;;5117134;28;20669;-82
2021/06/10 11:02:10;;;;;;;1999.90;999.90;;;23.40;99.90;;;;;;5096664;28;20187;-81
2021/06/10 11:05:00;;;;;;;1999.90;999.90;;;23.50;99.90;;;;;;5115152;28;20204;-81
2021/06/10 11:07:40;;;;;;;1999.90;999.90;;;23.30;99.90;;;;;;5116959;28;20256;-79
2021/06/10 11:10:29;;;;;;;1999.90;999.90;;;23.30;99.90;;;;;;5115621;28;20275;-81
2021/06/10 11:12:56;;;;;;;1999.90;999.90;;;23.40;99.90;;;;;;5091998;28;20177;-82
2021/06/10 11:15:29;;;;;;;1999.90;999.90;;;23.40;99.90;;;;;;5116349;28;20211;-82
2021/06/10 11:18:02;;;;;;;1999.90;999.90;;;23.70;99.90;;;;;;5116553;28;20164;-81
2021/06/10 11:20:37;;;;;;;1999.90;999.90;;;24.00;99.90;;;;;;5117595;28;20205;-82
2021/06/10 11:23:13;;;;;;;1999.90;999.90;;;24.00;99.90;;;;;;5114743;28;20186;-82
2021/06/10 11:25:41;;;;;;;1999.90;999.90;;;24.00;99.90;;;;;;5117051;28;20294;-81
2021/06/10 11:28:12;;;;;;;1999.90;999.90;;;24.00;99.90;;;;;;5110790;28;20176;-81
2021/06/10 11:30:39;;;;;;;1999.90;999.90;;;23.90;99.90;;;;;;5116942;28;20202;-81
2021/06/10 11:33:17;;;;;;;1999.90;999.90;;;23.90;99.90;;;;;;5099344;28;20172;-82
2021/06/10 11:35:49;;;;;;;1999.90;999.90;;;24.10;99.90;;;;;;5117472;28;20207;-82
2021/06/10 11:38:28;;;;;;;1999.90;999.90;;;24.20;99.90;;;;;;5118282;28;20183;-81
2021/06/10 11:40:59;;;;;;;1999.90;999.90;;;24.50;99.90;;;;;;5099080;28;20244;-82
2021/06/10 11:43:26;;;;;;;1999.90;999.90;;;24.60;99.90;;;;;;5118302;28;20183;-82
2021/06/10 11:45:58;;;;;;;1999.90;999.90;;;24.60;99.90;;;;;;5117899;28;20737;-82
2021/06/10 11:48:47;;;;;;;1999.90;999.90;;;24.40;99.90;;;;;;5116618;28;20225;-82
2021/06/10 11:51:20;;;;;;;1999.90;999.90;;;24.50;99.90;;;;;;5117472;28;20653;-81
2021/06/10 11:53:46;;;;;;;1999.90;999.90;;;24.70;99.90;;;;;;5118188;28;20199;-82
2021/06/10 11:56:12;;;;;;;1999.90;999.90;;;24.70;99.90;;;;;;5117470;28;20234;-81
2021/06/10 11:58:38;;;;;;;1999.90;999.90;;;25.00;99.90;;;;;;5118280;28;20700;-81
2021/06/10 12:01:14;;;;;;;1999.90;999.90;;;24.80;99.90;;;;;;5118514;28;20203;-82
2021/06/10 12:03:40;;;;;;;1999.90;999.90;;;25.10;99.90;;;;;;5116337;28;20484;-82
2021/06/10 12:06:11;;;;;;;1999.90;999.90;;;25.10;99.90;;;;;;5118543;28;20577;-82